createdAt,value
2019-06-08T00:00:34.365Z,0.00
2019-06-08T00:01:34.348Z,0.00
2019-06-08T00:02:34.346Z,0.00
2019-06-08T00:03:34.328Z,0.00
2019-06-08T00:04:34.320Z,0.00
2019-06-08T00:05:34.307Z,0.00
2019-06-08T00:06:34.296Z,0.00
2019-06-08T00:07:34.284Z,0.00
2019-06-08T00:08:34.271Z,0.00
2019-06-08T00:09:34.261Z,0.00
2019-06-08T00:10:34.252Z,0.00
2019-06-08T00:11:34.244Z,0.00
2019-06-08T00:12:34.230Z,0.00
2019-06-08T00:13:34.227Z,0.00
2019-06-08T00:14:34.209Z,0.00
2019-06-08T00:15:34.198Z,0.00
2019-06-08T00:16:34.199Z,0.00
2019-06-08T00:17:38.509Z,0.00
2019-06-08T00:18:35.161Z,0.00
2019-06-08T00:19:34.153Z,0.00
2019-06-08T00:20:34.140Z,0.00
2019-06-08T00:21:34.127Z,0.00
2019-06-08T00:22:34.117Z,0.00
2019-06-08T00:23:34.106Z,0.00
2019-06-08T00:24:34.098Z,0.00
2019-06-08T00:25:34.082Z,0.00
2019-06-08T00:26:34.072Z,0.00
2019-06-08T00:27:34.063Z,0.00
2019-06-08T00:28:34.052Z,0.00
2019-06-08T00:29:34.041Z,0.00
2019-06-08T00:30:35.236Z,0.00
2019-06-08T00:31:34.019Z,0.00
2019-06-08T00:32:34.044Z,0.00
2019-06-08T00:33:33.995Z,0.00
2019-06-08T00:34:33.991Z,0.00
2019-06-08T00:35:33.973Z,0.00
2019-06-08T00:36:33.961Z,0.00
2019-06-08T00:37:33.951Z,0.00
2019-06-08T00:38:33.941Z,0.00
2019-06-08T00:39:33.927Z,0.00
2019-06-08T00:40:33.924Z,0.00
2019-06-08T00:41:33.912Z,0.00
2019-06-08T00:42:33.897Z,0.00
2019-06-08T00:43:33.889Z,0.00
2019-06-08T00:44:33.875Z,0.00
2019-06-08T00:45:33.863Z,0.00
2019-06-08T00:46:33.860Z,0.00
2019-06-08T00:47:47.162Z,0.00
2019-06-08T00:48:34.827Z,0.00
2019-06-08T00:49:33.818Z,0.00
2019-06-08T00:50:33.806Z,0.00
2019-06-08T00:51:33.799Z,0.00
2019-06-08T00:52:33.784Z,0.00
2019-06-08T00:53:33.776Z,0.00
2019-06-08T00:54:33.766Z,0.00
2019-06-08T00:55:33.763Z,0.00
2019-06-08T00:56:33.744Z,0.00
2019-06-08T00:57:33.733Z,0.00
2019-06-08T00:58:33.718Z,0.00
2019-06-08T00:59:33.709Z,0.00
2019-06-08T01:00:33.697Z,0.00
2019-06-08T01:01:33.689Z,0.00
2019-06-08T01:02:33.676Z,0.00
2019-06-08T01:03:33.665Z,0.00
2019-06-08T01:04:33.661Z,0.00
2019-06-08T01:05:33.641Z,0.00
2019-06-08T01:06:33.632Z,0.00
2019-06-08T01:07:33.621Z,0.00
2019-06-08T01:08:33.623Z,0.00
2019-06-08T01:09:33.598Z,0.00
2019-06-08T01:10:33.588Z,0.00
2019-06-08T01:11:33.575Z,0.00
2019-06-08T01:12:33.565Z,0.00
2019-06-08T01:13:33.554Z,0.00
2019-06-08T01:14:33.550Z,0.00
2019-06-08T01:15:34.442Z,0.00
2019-06-08T01:16:33.522Z,0.00
2019-06-08T01:17:33.510Z,0.00
2019-06-08T01:18:33.501Z,0.00
2019-06-08T01:19:33.492Z,0.00
2019-06-08T01:20:33.476Z,0.00
2019-06-08T01:21:33.464Z,0.00
2019-06-08T01:22:33.454Z,0.00
2019-06-08T01:23:33.447Z,0.00
2019-06-08T01:24:33.464Z,0.00
2019-06-08T01:25:33.421Z,0.00
2019-06-08T01:26:33.412Z,0.00
2019-06-08T01:27:33.399Z,0.00
2019-06-08T01:28:33.393Z,0.00
2019-06-08T01:29:33.374Z,0.00
2019-06-08T01:30:33.366Z,0.00
2019-06-08T01:31:33.371Z,0.00
2019-06-08T01:32:33.497Z,0.00
2019-06-08T01:33:33.336Z,0.00
2019-06-08T01:34:33.324Z,0.00
2019-06-08T01:35:33.310Z,0.00
2019-06-08T01:36:33.301Z,0.00
2019-06-08T01:37:33.285Z,0.00
2019-06-08T01:38:33.283Z,0.00
2019-06-08T01:39:33.267Z,0.00
2019-06-08T01:40:33.256Z,0.00
2019-06-08T01:41:33.247Z,0.00
2019-06-08T01:42:33.235Z,0.00
2019-06-08T01:43:33.229Z,0.00
2019-06-08T01:44:33.211Z,0.00
2019-06-08T01:45:33.531Z,0.00
2019-06-08T01:46:33.187Z,0.00
2019-06-08T01:47:33.177Z,0.00
2019-06-08T01:48:33.166Z,0.00
2019-06-08T01:49:33.171Z,0.00
2019-06-08T01:50:33.184Z,0.00
2019-06-08T01:51:33.133Z,0.00
2019-06-08T01:52:33.121Z,0.00
2019-06-08T01:53:33.117Z,0.00
2019-06-08T01:54:33.384Z,0.00
2019-06-08T01:55:33.320Z,0.00
2019-06-08T01:56:33.427Z,0.00
2019-06-08T01:57:33.816Z,0.00
2019-06-08T01:58:33.478Z,0.00
2019-06-08T01:59:34.678Z,0.00
2019-06-08T02:00:39.392Z,0.00
2019-06-08T02:01:34.252Z,0.00
2019-06-08T02:02:34.205Z,0.00
2019-06-08T02:03:34.675Z,0.00
2019-06-08T02:04:33.528Z,0.00
2019-06-08T02:05:34.415Z,0.00
2019-06-08T02:06:32.966Z,0.00
2019-06-08T02:07:32.957Z,0.00
2019-06-08T02:08:32.942Z,0.00
2019-06-08T02:09:32.932Z,0.00
2019-06-08T02:10:32.994Z,0.00
2019-06-08T02:11:33.071Z,0.00
2019-06-08T02:12:33.136Z,0.00
2019-06-08T02:13:33.161Z,0.00
2019-06-08T02:14:33.248Z,4.00
2019-06-08T02:15:33.859Z,0.00
2019-06-08T02:16:33.343Z,4.00
2019-06-08T02:17:33.469Z,4.00
2019-06-08T02:18:44.106Z,4.00
2019-06-08T02:19:34.797Z,4.00
2019-06-08T02:20:33.072Z,4.00
2019-06-08T02:21:32.939Z,4.00
2019-06-08T02:22:33.110Z,4.00
2019-06-08T02:23:33.096Z,4.00
2019-06-08T02:24:33.383Z,4.00
2019-06-08T02:25:33.538Z,4.00
2019-06-08T02:26:35.157Z,4.00
2019-06-08T02:27:33.552Z,4.00
2019-06-08T02:28:33.640Z,8.00
2019-06-08T02:29:33.689Z,8.00
2019-06-08T02:30:36.006Z,12.00
2019-06-08T02:31:33.222Z,12.00
2019-06-08T02:32:33.505Z,8.00
2019-06-08T02:33:34.677Z,12.00
2019-06-08T02:34:34.732Z,16.00
2019-06-08T02:35:32.947Z,16.00
2019-06-08T02:36:33.745Z,20.00
2019-06-08T02:37:33.085Z,20.00
2019-06-08T02:38:34.621Z,24.00
2019-06-08T02:39:32.807Z,28.00
2019-06-08T02:40:34.576Z,28.00
2019-06-08T02:41:33.133Z,36.00
2019-06-08T02:42:33.082Z,44.00
2019-06-08T02:43:33.349Z,48.00
2019-06-08T02:44:34.291Z,52.00
2019-06-08T02:45:34.053Z,52.00
2019-06-08T02:46:33.320Z,52.00
2019-06-08T02:47:33.051Z,48.00
2019-06-08T02:48:33.597Z,48.00
2019-06-08T02:49:33.228Z,56.00
2019-06-08T02:50:33.042Z,64.00
2019-06-08T02:51:34.302Z,72.00
2019-06-08T02:52:34.348Z,76.00
2019-06-08T02:53:34.278Z,76.00
2019-06-08T02:54:34.719Z,80.00
2019-06-08T02:55:33.066Z,80.00
2019-06-08T02:56:33.936Z,72.00
2019-06-08T02:57:33.239Z,72.00
2019-06-08T02:58:33.580Z,76.00
2019-06-08T02:59:32.921Z,84.00
2019-06-08T03:00:33.659Z,88.00
2019-06-08T03:01:33.702Z,92.00
2019-06-08T03:02:33.903Z,104.00
2019-06-08T03:03:33.796Z,124.00
2019-06-08T03:04:32.455Z,152.00
2019-06-08T03:05:33.987Z,192.00
2019-06-08T03:06:34.537Z,204.00
2019-06-08T03:07:32.385Z,204.00
2019-06-08T03:08:32.838Z,208.00
2019-06-08T03:09:32.508Z,208.00
2019-06-08T03:10:32.939Z,200.00
2019-06-08T03:11:32.647Z,212.00
2019-06-08T03:12:32.992Z,236.00
2019-06-08T03:13:33.582Z,260.00
2019-06-08T03:14:33.318Z,288.00
2019-06-08T03:15:34.490Z,312.00
2019-06-08T03:16:33.347Z,320.00
2019-06-08T03:17:33.389Z,324.00
2019-06-08T03:18:33.642Z,324.00
2019-06-08T03:19:33.321Z,316.00
2019-06-08T03:20:33.449Z,296.00
2019-06-08T03:21:33.828Z,272.00
2019-06-08T03:22:34.036Z,272.00
2019-06-08T03:23:34.058Z,312.00
2019-06-08T03:24:32.905Z,376.00
2019-06-08T03:25:35.182Z,448.00
2019-06-08T03:26:34.249Z,484.00
2019-06-08T03:27:32.664Z,488.00
2019-06-08T03:28:32.625Z,484.00
2019-06-08T03:29:32.468Z,456.00
2019-06-08T03:30:35.302Z,416.00
2019-06-08T03:31:36.125Z,392.00
2019-06-08T03:32:34.840Z,380.00
2019-06-08T03:33:34.527Z,376.00
2019-06-08T03:34:35.571Z,380.00
2019-06-08T03:35:36.056Z,392.00
2019-06-08T03:36:35.823Z,412.00
2019-06-08T03:37:33.280Z,428.00
2019-06-08T03:38:33.595Z,432.00
2019-06-08T03:39:31.951Z,436.00
2019-06-08T03:40:33.791Z,440.00
2019-06-08T03:41:31.930Z,464.00
2019-06-08T03:42:31.920Z,504.00
2019-06-08T03:43:31.907Z,520.00
2019-06-08T03:44:31.903Z,544.00
2019-06-08T03:45:31.885Z,580.00
2019-06-08T03:46:31.872Z,620.00
2019-06-08T03:47:31.862Z,648.00
2019-06-08T03:48:31.854Z,656.00
2019-06-08T03:49:42.910Z,664.00
2019-06-08T03:50:32.831Z,656.00
2019-06-08T03:51:35.349Z,616.00
2019-06-08T03:52:32.808Z,560.00
2019-06-08T03:53:31.798Z,556.00
2019-06-08T03:54:31.793Z,556.00
2019-06-08T03:55:31.777Z,528.00
2019-06-08T03:56:31.764Z,504.00
2019-06-08T03:57:31.760Z,528.00
2019-06-08T03:58:34.124Z,648.00
2019-06-08T03:59:31.735Z,844.00
2019-06-08T04:00:31.721Z,1040.00
2019-06-08T04:01:31.709Z,1200.00
2019-06-08T04:02:31.699Z,1248.00
2019-06-08T04:03:31.690Z,1260.00
2019-06-08T04:04:31.689Z,1284.00
2019-06-08T04:05:31.668Z,1348.00
2019-06-08T04:06:31.655Z,1404.00
2019-06-08T04:07:31.646Z,1444.00
2019-06-08T04:08:31.635Z,1472.00
2019-06-08T04:09:31.637Z,1496.00
2019-06-08T04:10:31.614Z,1484.00
2019-06-08T04:11:31.606Z,1456.00
2019-06-08T04:12:31.594Z,1424.00
2019-06-08T04:13:31.580Z,1404.00
2019-06-08T04:14:31.600Z,1388.00
2019-06-08T04:15:31.560Z,1360.00
2019-06-08T04:16:31.552Z,1292.00
2019-06-08T04:17:31.545Z,1256.00
2019-06-08T04:18:31.526Z,1232.00
2019-06-08T04:19:31.514Z,1204.00
2019-06-08T04:20:31.503Z,1152.00
2019-06-08T04:21:31.573Z,1144.00
2019-06-08T04:22:31.483Z,1232.00
2019-06-08T04:23:31.473Z,1484.00
2019-06-08T04:24:31.463Z,1760.00
2019-06-08T04:25:31.448Z,1968.00
2019-06-08T04:26:31.445Z,2104.00
2019-06-08T04:27:31.440Z,2204.00
2019-06-08T04:28:31.429Z,2280.00
2019-06-08T04:29:31.405Z,2284.00
2019-06-08T04:30:31.396Z,2244.00
2019-06-08T04:31:31.388Z,2196.00
2019-06-08T04:32:31.376Z,2164.00
2019-06-08T04:33:31.362Z,2128.00
2019-06-08T04:34:31.356Z,2012.00
2019-06-08T04:35:31.344Z,1924.00
2019-06-08T04:36:31.330Z,1992.00
2019-06-08T04:37:31.322Z,2196.00
2019-06-08T04:38:31.307Z,2352.00
2019-06-08T04:39:31.299Z,2496.00
2019-06-08T04:40:31.291Z,2664.00
2019-06-08T04:41:31.276Z,2684.00
2019-06-08T04:42:31.276Z,2684.00
2019-06-08T04:43:31.256Z,2616.00
2019-06-08T04:44:31.245Z,2436.00
2019-06-08T04:45:31.268Z,2220.00
2019-06-08T04:46:31.222Z,2144.00
2019-06-08T04:47:31.214Z,2212.00
2019-06-08T04:48:31.201Z,2396.00
2019-06-08T04:49:31.194Z,2608.00
2019-06-08T04:50:31.181Z,2852.00
2019-06-08T04:51:31.175Z,3008.00
2019-06-08T04:52:31.162Z,3140.00
2019-06-08T04:53:31.145Z,3264.00
2019-06-08T04:54:31.157Z,3248.00
2019-06-08T04:55:31.208Z,3004.00
2019-06-08T04:56:31.114Z,2608.00
2019-06-08T04:57:31.103Z,2408.00
2019-06-08T04:58:31.095Z,2480.00
2019-06-08T04:59:31.081Z,2852.00
2019-06-08T05:00:31.525Z,3296.00
2019-06-08T05:01:31.059Z,3752.00
2019-06-08T05:02:31.047Z,4300.00
2019-06-08T05:03:31.057Z,4820.00
2019-06-08T05:04:31.032Z,5416.00
2019-06-08T05:05:31.020Z,5856.00
2019-06-08T05:06:31.029Z,6428.00
2019-06-08T05:07:30.995Z,6380.00
2019-06-08T05:08:30.983Z,5760.00
2019-06-08T05:09:30.977Z,5224.00
2019-06-08T05:10:30.962Z,4824.00
2019-06-08T05:11:30.953Z,4824.00
2019-06-08T05:12:30.950Z,5136.00
2019-06-08T05:13:30.939Z,5536.00
2019-06-08T05:14:30.926Z,5416.00
2019-06-08T05:15:30.906Z,5224.00
2019-06-08T05:16:30.901Z,5168.00
2019-06-08T05:17:30.886Z,5464.00
2019-06-08T05:18:30.875Z,5572.00
2019-06-08T05:19:31.001Z,6132.00
2019-06-08T05:20:38.837Z,6840.00
2019-06-08T05:21:31.845Z,7128.00
2019-06-08T05:22:30.832Z,6916.00
2019-06-08T05:23:30.821Z,6708.00
2019-06-08T05:24:30.814Z,6772.00
2019-06-08T05:25:30.797Z,6708.00
2019-06-08T05:26:30.799Z,6688.00
2019-06-08T05:27:30.782Z,6708.00
2019-06-08T05:28:30.791Z,6364.00
2019-06-08T05:29:30.757Z,5800.00
2019-06-08T05:30:30.743Z,5116.00
2019-06-08T05:31:30.734Z,4532.00
2019-06-08T05:32:30.724Z,4344.00
2019-06-08T05:33:30.721Z,4444.00
2019-06-08T05:34:30.703Z,6240.00
2019-06-08T05:35:30.703Z,6584.00
2019-06-08T05:36:30.682Z,7028.00
2019-06-08T05:37:30.666Z,7224.00
2019-06-08T05:38:30.662Z,7416.00
2019-06-08T05:39:30.910Z,7536.00
2019-06-08T05:40:30.634Z,7572.00
2019-06-08T05:41:30.625Z,7680.00
2019-06-08T05:42:30.614Z,7840.00
2019-06-08T05:43:30.603Z,7956.00
2019-06-08T05:44:30.608Z,8076.00
2019-06-08T05:45:30.581Z,8160.00
2019-06-08T05:46:30.568Z,8100.00
2019-06-08T05:47:30.558Z,8188.00
2019-06-08T05:48:30.545Z,8052.00
2019-06-08T05:49:30.534Z,8124.00
2019-06-08T05:50:30.539Z,8376.00
2019-06-08T05:51:30.513Z,8396.00
2019-06-08T05:52:30.538Z,8420.00
2019-06-08T05:53:30.489Z,8284.00
2019-06-08T05:54:30.487Z,8552.00
2019-06-08T05:55:30.468Z,8708.00
2019-06-08T05:56:30.458Z,8940.00
2019-06-08T05:57:30.450Z,9288.00
2019-06-08T05:58:30.436Z,9652.00
2019-06-08T05:59:30.425Z,10004.00
2019-06-08T06:00:30.414Z,10168.00
2019-06-08T06:01:30.403Z,9796.00
2019-06-08T06:02:30.394Z,9516.00
2019-06-08T06:03:30.389Z,9360.00
2019-06-08T06:04:30.384Z,9340.00
2019-06-08T06:05:30.358Z,9388.00
2019-06-08T06:06:30.349Z,9460.00
2019-06-08T06:07:30.339Z,9496.00
2019-06-08T06:08:30.342Z,9596.00
2019-06-08T06:09:30.318Z,9740.00
2019-06-08T06:10:30.305Z,9864.00
2019-06-08T06:11:30.295Z,10044.00
2019-06-08T06:12:30.283Z,10260.00
2019-06-08T06:13:30.277Z,10480.00
2019-06-08T06:14:30.270Z,10688.00
2019-06-08T06:15:30.253Z,11212.00
2019-06-08T06:16:30.239Z,11792.00
2019-06-08T06:17:30.231Z,12712.00
2019-06-08T06:18:30.222Z,13664.00
2019-06-08T06:19:30.208Z,14420.00
2019-06-08T06:20:30.199Z,12068.00
2019-06-08T06:21:30.187Z,12952.00
2019-06-08T06:22:30.173Z,18112.00
2019-06-08T06:23:30.162Z,15784.00
2019-06-08T06:24:30.164Z,14552.00
2019-06-08T06:25:30.144Z,17504.00
2019-06-08T06:26:30.132Z,18400.00
2019-06-08T06:27:30.123Z,16544.00
2019-06-08T06:28:30.113Z,15076.00
2019-06-08T06:29:30.104Z,14884.00
2019-06-08T06:30:30.090Z,14580.00
2019-06-08T06:31:30.076Z,13628.00
2019-06-08T06:32:30.080Z,12996.00
2019-06-08T06:33:30.056Z,12384.00
2019-06-08T06:34:30.048Z,12296.00
2019-06-08T06:35:30.050Z,12468.00
2019-06-08T06:36:30.021Z,13260.00
2019-06-08T06:37:30.013Z,14444.00
2019-06-08T06:38:30.002Z,15212.00
2019-06-08T06:39:29.991Z,15240.00
2019-06-08T06:40:29.984Z,15816.00
2019-06-08T06:41:29.974Z,14464.00
2019-06-08T06:42:29.961Z,12724.00
2019-06-08T06:43:29.953Z,11472.00
2019-06-08T06:44:29.944Z,9792.00
2019-06-08T06:45:29.925Z,10020.00
2019-06-08T06:46:29.913Z,8076.00
2019-06-08T06:47:29.902Z,8060.00
2019-06-08T06:48:29.896Z,7200.00
2019-06-08T06:49:29.882Z,12988.00
2019-06-08T06:50:29.889Z,13704.00
2019-06-08T06:51:29.861Z,13784.00
2019-06-08T06:52:29.849Z,13912.00
2019-06-08T06:53:29.840Z,14256.00
2019-06-08T06:54:29.849Z,15084.00
2019-06-08T06:55:29.815Z,15472.00
2019-06-08T06:56:29.805Z,15452.00
2019-06-08T06:57:29.795Z,16384.00
2019-06-08T06:58:29.783Z,17280.00
2019-06-08T06:59:29.774Z,18304.00
2019-06-08T07:00:29.761Z,19648.00
2019-06-08T07:01:29.753Z,20768.00
2019-06-08T07:02:29.740Z,20896.00
2019-06-08T07:03:29.742Z,21184.00
2019-06-08T07:04:29.726Z,21504.00
2019-06-08T07:05:29.706Z,22272.00
2019-06-08T07:06:29.696Z,22688.00
2019-06-08T07:07:29.684Z,23328.00
2019-06-08T07:08:29.679Z,23872.00
2019-06-08T07:09:29.663Z,25280.00
2019-06-08T07:10:29.654Z,26464.00
2019-06-08T07:11:29.646Z,27616.00
2019-06-08T07:12:29.634Z,21216.00
2019-06-08T07:13:29.630Z,18304.00
2019-06-08T07:14:29.611Z,23968.00
2019-06-08T07:15:29.598Z,22688.00
2019-06-08T07:16:29.587Z,14432.00
2019-06-08T07:17:29.589Z,13444.00
2019-06-08T07:18:29.566Z,12988.00
2019-06-08T07:19:29.563Z,12736.00
2019-06-08T07:20:29.549Z,12764.00
2019-06-08T07:21:41.380Z,13256.00
2019-06-08T07:22:30.523Z,13588.00
2019-06-08T07:23:29.513Z,13908.00
2019-06-08T07:24:29.503Z,14332.00
2019-06-08T07:25:29.490Z,14260.00
2019-06-08T07:26:29.481Z,13316.00
2019-06-08T07:27:29.467Z,12848.00
2019-06-08T07:28:29.466Z,12384.00
2019-06-08T07:29:29.447Z,12400.00
2019-06-08T07:30:29.437Z,12760.00
2019-06-08T07:31:29.429Z,12872.00
2019-06-08T07:32:29.415Z,13268.00
2019-06-08T07:33:29.406Z,13344.00
2019-06-08T07:34:29.395Z,13080.00
2019-06-08T07:35:29.381Z,12936.00
2019-06-08T07:36:29.371Z,13296.00
2019-06-08T07:37:29.576Z,14240.00
2019-06-08T07:38:29.350Z,15220.00
2019-06-08T07:39:29.344Z,16372.00
2019-06-08T07:40:29.326Z,17696.00
2019-06-08T07:41:29.319Z,18592.00
2019-06-08T07:42:29.308Z,18464.00
2019-06-08T07:43:29.295Z,17632.00
2019-06-08T07:44:29.289Z,16704.00
2019-06-08T07:45:29.273Z,15648.00
2019-06-08T07:46:29.263Z,14508.00
2019-06-08T07:47:29.252Z,13736.00
2019-06-08T07:48:29.240Z,13296.00
2019-06-08T07:49:29.231Z,12396.00
2019-06-08T07:50:29.219Z,11344.00
2019-06-08T07:51:29.213Z,10640.00
2019-06-08T07:52:29.197Z,9832.00
2019-06-08T07:53:29.200Z,8952.00
2019-06-08T07:54:29.183Z,7824.00
2019-06-08T07:55:29.163Z,6804.00
2019-06-08T07:56:29.154Z,5876.00
2019-06-08T07:57:29.150Z,5240.00
2019-06-08T07:58:29.132Z,4984.00
2019-06-08T07:59:29.121Z,5052.00
2019-06-08T08:00:29.111Z,5396.00
2019-06-08T08:01:36.052Z,5812.00
2019-06-08T08:02:30.085Z,6144.00
2019-06-08T08:03:29.076Z,6476.00
2019-06-08T08:04:29.067Z,6952.00
2019-06-08T08:05:29.054Z,7568.00
2019-06-08T08:06:30.435Z,8096.00
2019-06-08T08:07:29.034Z,8616.00
2019-06-08T08:08:29.022Z,8948.00
2019-06-08T08:09:29.573Z,8896.00
2019-06-08T08:10:29.006Z,8744.00
2019-06-08T08:11:29.041Z,8912.00
2019-06-08T08:12:28.981Z,9396.00
2019-06-08T08:13:28.969Z,10152.00
2019-06-08T08:14:28.961Z,10816.00
2019-06-08T08:15:28.949Z,11608.00
2019-06-08T08:16:28.934Z,12752.00
2019-06-08T08:17:28.923Z,14200.00
2019-06-08T08:18:28.917Z,14800.00
2019-06-08T08:19:28.903Z,15640.00
2019-06-08T08:20:28.890Z,14040.00
2019-06-08T08:21:29.589Z,12416.00
2019-06-08T08:22:29.589Z,10396.00
2019-06-08T08:23:28.860Z,9592.00
2019-06-08T08:24:28.853Z,8784.00
2019-06-08T08:25:28.841Z,7988.00
2019-06-08T08:26:31.308Z,7536.00
2019-06-08T08:27:29.816Z,7128.00
2019-06-08T08:28:28.805Z,6640.00
2019-06-08T08:29:31.374Z,6156.00
2019-06-08T08:30:28.782Z,5752.00
2019-06-08T08:31:28.772Z,5524.00
2019-06-08T08:32:28.767Z,5640.00
2019-06-08T08:33:28.750Z,5936.00
2019-06-08T08:34:28.748Z,6408.00
2019-06-08T08:35:28.729Z,6732.00
2019-06-08T08:36:30.129Z,7148.00
2019-06-08T08:37:28.707Z,7464.00
2019-06-08T08:38:28.700Z,7732.00
2019-06-08T08:39:28.684Z,8020.00
2019-06-08T08:40:28.676Z,8656.00
2019-06-08T08:41:28.664Z,9256.00
2019-06-08T08:42:30.134Z,9700.00
2019-06-08T08:43:28.640Z,10228.00
2019-06-08T08:44:28.633Z,11196.00
2019-06-08T08:45:28.623Z,12044.00
2019-06-08T08:46:28.724Z,12180.00
2019-06-08T08:47:30.818Z,12300.00
2019-06-08T08:48:31.502Z,12940.00
2019-06-08T08:49:28.576Z,13416.00
2019-06-08T08:50:28.566Z,14140.00
2019-06-08T08:51:28.556Z,14904.00
2019-06-08T08:52:36.806Z,15328.00
2019-06-08T08:53:29.534Z,14656.00
2019-06-08T08:54:29.788Z,12620.00
2019-06-08T08:55:28.511Z,11036.00
2019-06-08T08:56:28.498Z,10260.00
2019-06-08T08:57:28.940Z,8916.00
2019-06-08T08:58:28.483Z,7544.00
2019-06-08T08:59:28.466Z,6072.00
2019-06-08T09:00:28.456Z,5280.00
2019-06-08T09:01:28.967Z,5196.00
2019-06-08T09:02:28.437Z,5404.00
2019-06-08T09:03:33.247Z,5560.00
2019-06-08T09:04:29.418Z,6100.00
2019-06-08T09:05:28.403Z,6856.00
2019-06-08T09:06:28.430Z,7380.00
2019-06-08T09:07:28.381Z,7600.00
2019-06-08T09:08:29.935Z,8004.00
2019-06-08T09:09:28.891Z,8232.00
2019-06-08T09:10:28.347Z,8692.00
2019-06-08T09:11:28.906Z,9088.00
2019-06-08T09:12:28.338Z,9264.00
2019-06-08T09:13:28.386Z,8748.00
2019-06-08T09:14:28.312Z,8060.00
2019-06-08T09:15:31.419Z,7448.00
2019-06-08T09:16:28.859Z,7136.00
2019-06-08T09:17:28.290Z,7352.00
2019-06-08T09:18:28.691Z,7816.00
2019-06-08T09:19:28.326Z,8132.00
2019-06-08T09:20:28.647Z,8216.00
2019-06-08T09:21:28.317Z,8232.00
2019-06-08T09:22:31.170Z,8128.00
2019-06-08T09:23:28.291Z,8004.00
2019-06-08T09:24:28.603Z,7656.00
2019-06-08T09:25:28.225Z,7184.00
2019-06-08T09:26:28.745Z,6812.00
2019-06-08T09:27:28.185Z,6768.00
2019-06-08T09:28:28.582Z,6968.00
2019-06-08T09:29:28.927Z,7284.00
2019-06-08T09:30:28.145Z,7732.00
2019-06-08T09:31:30.881Z,8148.00
2019-06-08T09:32:28.326Z,8628.00
2019-06-08T09:33:28.790Z,8936.00
2019-06-08T09:34:28.379Z,9232.00
2019-06-08T09:35:28.118Z,9768.00
2019-06-08T09:36:28.647Z,10640.00
2019-06-08T09:37:28.827Z,12132.00
2019-06-08T09:38:28.724Z,13404.00
2019-06-08T09:39:28.667Z,14880.00
2019-06-08T09:40:31.857Z,16928.00
2019-06-08T09:41:31.161Z,18272.00
2019-06-08T09:42:28.481Z,17760.00
2019-06-08T09:43:28.902Z,17024.00
2019-06-08T09:44:28.191Z,15912.00
2019-06-08T09:45:28.973Z,14228.00
2019-06-08T09:46:28.236Z,12408.00
2019-06-08T09:47:28.117Z,11136.00
2019-06-08T09:48:28.862Z,10528.00
2019-06-08T09:49:28.099Z,10376.00
2019-06-08T09:50:27.973Z,10272.00
2019-06-08T09:51:28.488Z,9900.00
2019-06-08T09:52:28.264Z,9340.00
2019-06-08T09:53:36.965Z,8860.00
2019-06-08T09:54:28.870Z,8756.00
2019-06-08T09:55:28.847Z,9004.00
2019-06-08T09:56:28.416Z,9428.00
2019-06-08T09:57:28.442Z,9724.00
2019-06-08T09:58:29.104Z,9204.00
2019-06-08T09:59:28.506Z,9012.00
2019-06-08T10:00:29.289Z,9064.00
2019-06-08T10:01:28.675Z,9488.00
2019-06-08T10:02:28.363Z,10032.00
2019-06-08T10:03:30.654Z,10832.00
2019-06-08T10:04:29.164Z,11552.00
2019-06-08T10:05:27.786Z,12096.00
2019-06-08T10:06:27.820Z,12700.00
2019-06-08T10:07:28.613Z,13452.00
2019-06-08T10:08:28.281Z,14316.00
2019-06-08T10:09:28.412Z,15348.00
2019-06-08T10:10:27.693Z,16060.00
2019-06-08T10:11:28.171Z,17088.00
2019-06-08T10:12:28.187Z,18208.00
2019-06-08T10:13:28.037Z,20864.00
2019-06-08T10:14:28.179Z,23232.00
2019-06-08T10:15:27.900Z,24736.00
2019-06-08T10:16:30.537Z,23488.00
2019-06-08T10:17:27.983Z,18976.00
2019-06-08T10:18:28.491Z,16928.00
2019-06-08T10:19:27.598Z,17504.00
2019-06-08T10:20:28.825Z,18400.00
2019-06-08T10:21:28.436Z,21056.00
2019-06-08T10:22:28.287Z,18976.00
2019-06-08T10:23:34.025Z,18112.00
2019-06-08T10:24:28.552Z,18272.00
2019-06-08T10:25:28.639Z,18880.00
2019-06-08T10:26:28.029Z,19136.00
2019-06-08T10:27:28.333Z,16108.00
2019-06-08T10:28:29.002Z,14108.00
2019-06-08T10:29:27.485Z,13588.00
2019-06-08T10:30:30.111Z,13460.00
2019-06-08T10:31:36.564Z,12292.00
2019-06-08T10:32:28.465Z,10860.00
2019-06-08T10:33:28.183Z,9616.00
2019-06-08T10:34:29.592Z,9108.00
2019-06-08T10:35:28.356Z,9528.00
2019-06-08T10:36:28.389Z,10128.00
2019-06-08T10:37:28.349Z,9824.00
2019-06-08T10:38:28.989Z,9056.00
2019-06-08T10:39:28.376Z,8732.00
2019-06-08T10:40:28.515Z,8916.00
2019-06-08T10:41:27.898Z,9108.00
2019-06-08T10:42:27.345Z,9796.00
2019-06-08T10:43:28.925Z,11004.00
2019-06-08T10:44:28.391Z,12456.00
2019-06-08T10:45:28.599Z,14044.00
2019-06-08T10:46:27.303Z,14972.00
2019-06-08T10:47:29.583Z,14532.00
2019-06-08T10:48:27.679Z,13072.00
2019-06-08T10:49:28.714Z,13548.00
2019-06-08T10:50:28.807Z,15060.00
2019-06-08T10:51:27.245Z,15624.00
2019-06-08T10:52:28.169Z,14776.00
2019-06-08T10:53:29.758Z,14624.00
2019-06-08T10:54:28.210Z,16832.00
2019-06-08T10:55:28.079Z,19392.00
2019-06-08T10:56:30.905Z,20960.00
2019-06-08T10:57:28.016Z,21312.00
2019-06-08T10:58:28.392Z,21920.00
2019-06-08T10:59:28.927Z,24672.00
2019-06-08T11:00:28.144Z,26784.00
2019-06-08T11:01:28.260Z,35712.00
2019-06-08T11:02:28.233Z,33056.00
2019-06-08T11:03:30.396Z,34112.00
2019-06-08T11:04:28.662Z,56512.00
2019-06-08T11:05:28.060Z,55072.00
2019-06-08T11:06:27.109Z,51104.00
2019-06-08T11:07:28.010Z,45152.00
2019-06-08T11:08:27.650Z,57856.00
2019-06-08T11:09:28.599Z,56640.00
2019-06-08T11:10:27.053Z,52736.00
2019-06-08T11:11:28.504Z,52864.00
2019-06-08T11:12:28.319Z,45792.00
2019-06-08T11:13:28.278Z,42368.00
2019-06-08T11:14:27.997Z,51616.00
2019-06-08T11:15:29.404Z,66816.00
2019-06-08T11:16:28.662Z,65280.00
2019-06-08T11:17:27.920Z,58112.00
2019-06-08T11:18:28.639Z,60064.00
2019-06-08T11:19:26.950Z,31616.00
2019-06-08T11:20:27.563Z,33312.00
2019-06-08T11:21:28.613Z,37120.00
2019-06-08T11:22:27.881Z,31936.00
2019-06-08T11:23:28.750Z,31040.00
2019-06-08T11:24:28.798Z,25312.00
2019-06-08T11:25:27.995Z,23904.00
2019-06-08T11:26:28.927Z,27840.00
2019-06-08T11:27:28.473Z,20928.00
2019-06-08T11:28:28.355Z,19552.00
2019-06-08T11:29:27.554Z,22848.00
2019-06-08T11:30:30.317Z,28480.00
2019-06-08T11:31:29.806Z,44928.00
2019-06-08T11:32:27.803Z,36640.00
2019-06-08T11:33:30.243Z,55232.00
2019-06-08T11:34:28.695Z,57440.00
2019-06-08T11:35:28.618Z,32192.00
2019-06-08T11:36:28.215Z,37536.00
2019-06-08T11:37:26.751Z,42976.00
2019-06-08T11:38:28.889Z,48064.00
2019-06-08T11:39:28.706Z,45568.00
2019-06-08T11:40:27.857Z,45280.00
2019-06-08T11:41:27.826Z,49216.00
2019-06-08T11:42:28.638Z,49216.00
2019-06-08T11:43:28.743Z,49760.00
2019-06-08T11:44:27.615Z,51424.00
2019-06-08T11:45:26.667Z,42304.00
2019-06-08T11:46:28.173Z,51040.00
2019-06-08T11:47:27.732Z,44192.00
2019-06-08T11:48:28.538Z,40288.00
2019-06-08T11:49:27.883Z,33088.00
2019-06-08T11:50:26.612Z,36800.00
2019-06-08T11:51:29.648Z,38848.00
2019-06-08T11:52:28.579Z,41568.00
2019-06-08T11:53:28.680Z,39968.00
2019-06-08T11:54:34.369Z,48928.00
2019-06-08T11:55:28.145Z,43264.00
2019-06-08T11:56:26.548Z,36736.00
2019-06-08T11:57:28.295Z,30112.00
2019-06-08T11:58:28.262Z,30848.00
2019-06-08T11:59:28.483Z,58304.00
2019-06-08T12:00:30.706Z,45792.00
2019-06-08T12:01:27.663Z,32512.00
2019-06-08T12:02:26.488Z,38048.00
2019-06-08T12:03:27.651Z,26272.00
2019-06-08T12:04:28.334Z,22656.00
2019-06-08T12:05:27.835Z,19616.00
2019-06-08T12:06:26.448Z,17920.00
2019-06-08T12:07:28.254Z,17600.00
2019-06-08T12:08:28.435Z,17792.00
2019-06-08T12:09:28.505Z,17184.00
2019-06-08T12:10:28.460Z,16288.00
2019-06-08T12:11:28.357Z,15572.00
2019-06-08T12:12:28.278Z,15284.00
2019-06-08T12:13:27.810Z,15508.00
2019-06-08T12:14:26.358Z,15716.00
2019-06-08T12:15:28.646Z,17152.00